createdAt,value
2018-12-09T00:00:49.602Z,10.20
2018-12-09T00:03:17.176Z,10.30
2018-12-09T00:05:44.771Z,10.30
2018-12-09T00:08:13.375Z,10.30
2018-12-09T00:10:42.813Z,10.30
2018-12-09T00:13:10.471Z,10.40
2018-12-09T00:15:38.057Z,10.40
2018-12-09T00:18:06.549Z,10.30
2018-12-09T00:20:34.132Z,10.30
2018-12-09T00:23:02.435Z,10.20
2018-12-09T00:25:30.017Z,10.20
2018-12-09T00:27:57.550Z,10.00
2018-12-09T00:30:26.084Z,9.80
2018-12-09T00:32:55.167Z,9.70
2018-12-09T00:35:22.712Z,9.60
2018-12-09T00:37:50.279Z,9.60
2018-12-09T00:40:17.855Z,9.50
2018-12-09T00:42:45.403Z,9.50
2018-12-09T00:45:12.956Z,9.60
2018-12-09T00:47:41.548Z,9.60
2018-12-09T00:50:09.127Z,9.60
2018-12-09T00:52:37.423Z,9.60
2018-12-09T00:55:05.932Z,9.50
2018-12-09T00:57:33.503Z,9.60
2018-12-09T01:00:01.041Z,9.70
2018-12-09T01:02:28.622Z,9.60
2018-12-09T01:04:56.159Z,9.70
2018-12-09T01:07:23.748Z,9.70
2018-12-09T01:09:51.285Z,9.70
2018-12-09T01:12:18.823Z,9.80
2018-12-09T01:14:46.396Z,9.70
2018-12-09T01:17:13.935Z,9.60
2018-12-09T01:19:41.516Z,9.70
2018-12-09T01:22:09.057Z,9.70
2018-12-09T01:24:36.626Z,9.80
2018-12-09T01:27:04.173Z,9.90
2018-12-09T01:29:31.752Z,9.90
2018-12-09T01:32:00.305Z,9.90
2018-12-09T01:34:29.828Z,10.00
2018-12-09T01:36:57.380Z,10.00
2018-12-09T01:39:24.951Z,10.00
2018-12-09T01:41:52.540Z,10.00
2018-12-09T01:44:20.118Z,10.10
2018-12-09T01:49:40.940Z,10.20
2018-12-09T01:52:08.483Z,10.20
2018-12-09T01:54:36.059Z,10.30
2018-12-09T01:57:03.611Z,10.30
2018-12-09T01:59:31.201Z,10.30
2018-12-09T02:01:58.779Z,10.30
2018-12-09T02:04:26.360Z,10.30
2018-12-09T02:06:53.898Z,10.20
2018-12-09T02:09:21.447Z,10.20
2018-12-09T02:11:49.013Z,10.20
2018-12-09T02:14:16.594Z,10.20
2018-12-09T02:16:44.171Z,10.20
2018-12-09T02:19:13.676Z,10.10
2018-12-09T02:21:41.261Z,10.10
2018-12-09T02:24:08.807Z,10.10
2018-12-09T02:26:36.379Z,10.10
2018-12-09T02:29:03.920Z,10.10
2018-12-09T02:31:31.504Z,10.20
2018-12-09T02:33:59.054Z,10.20
2018-12-09T02:36:26.649Z,10.20
2018-12-09T02:38:54.187Z,10.10
2018-12-09T02:41:23.713Z,10.10
2018-12-09T02:43:51.252Z,10.10
2018-12-09T02:46:19.799Z,10.10
2018-12-09T02:48:47.385Z,10.10
2018-12-09T02:51:14.963Z,10.10
2018-12-09T02:53:43.281Z,10.10
2018-12-09T02:56:12.820Z,10.10
2018-12-09T02:58:40.355Z,10.10
2018-12-09T03:01:07.939Z,10.10
2018-12-09T03:03:35.484Z,10.10
2018-12-09T03:06:03.056Z,10.10
2018-12-09T03:08:30.651Z,10.00
2018-12-09T03:10:58.226Z,10.10
2018-12-09T03:13:26.746Z,10.10
2018-12-09T03:15:56.289Z,10.10
2018-12-09T03:18:24.816Z,10.10
2018-12-09T03:20:52.405Z,10.10
2018-12-09T03:23:19.982Z,10.10
2018-12-09T03:25:47.554Z,10.10
2018-12-09T03:28:16.054Z,10.00
2018-12-09T03:30:43.651Z,10.00
2018-12-09T03:33:11.190Z,10.00
2018-12-09T03:35:38.802Z,10.00
2018-12-09T03:38:06.343Z,10.00
2018-12-09T03:40:33.919Z,9.90
2018-12-09T03:43:01.465Z,9.90
2018-12-09T03:45:29.084Z,9.90
2018-12-09T03:47:56.663Z,9.80
2018-12-09T03:50:24.208Z,9.90
2018-12-09T03:52:51.787Z,9.80
2018-12-09T03:55:19.327Z,9.80
2018-12-09T03:57:46.901Z,9.80
2018-12-09T04:00:14.470Z,9.80
2018-12-09T04:02:42.040Z,9.80
2018-12-09T04:05:09.592Z,9.80
2018-12-09T04:07:37.164Z,9.80
2018-12-09T04:10:04.706Z,9.80
2018-12-09T04:12:32.311Z,9.90
2018-12-09T04:14:59.863Z,9.90
2018-12-09T04:17:27.465Z,9.90
2018-12-09T04:19:54.999Z,9.90
2018-12-09T04:22:22.575Z,9.80
2018-12-09T04:24:50.175Z,9.80
2018-12-09T04:27:17.769Z,9.70
2018-12-09T04:29:46.070Z,9.60
2018-12-09T04:32:13.652Z,9.60
2018-12-09T04:34:41.191Z,9.60
2018-12-09T04:37:08.806Z,9.60
2018-12-09T04:39:36.352Z,9.50
2018-12-09T04:42:03.921Z,8.40
2018-12-09T04:44:31.454Z,5.70
2018-12-09T04:46:59.027Z,3.20
2018-12-09T04:49:26.604Z,3.80
2018-12-09T04:51:54.193Z,4.60
2018-12-09T04:54:21.736Z,4.90
2018-12-09T04:56:49.320Z,5.00
2018-12-09T04:59:17.798Z,5.20
2018-12-09T05:01:45.411Z,5.20
2018-12-09T05:04:13.923Z,5.40
2018-12-09T05:06:43.470Z,5.40
2018-12-09T05:09:11.018Z,5.60
2018-12-09T05:11:39.529Z,5.70
2018-12-09T05:14:07.102Z,5.80
2018-12-09T05:16:34.644Z,5.80
2018-12-09T05:19:02.216Z,5.90
2018-12-09T05:21:30.528Z,5.90
2018-12-09T05:24:00.089Z,5.90
2018-12-09T05:26:28.588Z,5.90
2018-12-09T05:28:56.928Z,6.10
2018-12-09T05:31:24.474Z,6.10
2018-12-09T05:33:52.039Z,6.30
2018-12-09T05:36:19.587Z,6.30
2018-12-09T05:38:47.157Z,6.40
2018-12-09T05:41:15.678Z,6.50
2018-12-09T05:43:45.205Z,6.60
2018-12-09T05:46:12.750Z,6.60
2018-12-09T05:48:42.267Z,6.60
2018-12-09T05:51:10.774Z,6.60
2018-12-09T05:53:40.298Z,6.60
2018-12-09T05:56:07.830Z,6.60
2018-12-09T05:58:35.412Z,6.60
2018-12-09T06:01:02.957Z,6.60
2018-12-09T06:03:30.529Z,6.60
2018-12-09T06:05:58.100Z,6.60
2018-12-09T06:08:25.677Z,6.60
2018-12-09T06:10:53.237Z,6.50
2018-12-09T06:13:20.833Z,6.60
2018-12-09T06:15:48.439Z,6.40
2018-12-09T06:18:18.711Z,6.40
2018-12-09T06:20:46.265Z,6.30
2018-12-09T06:23:14.799Z,6.40
2018-12-09T06:25:42.356Z,6.40
2018-12-09T06:28:09.960Z,6.30
2018-12-09T06:30:37.509Z,6.30
2018-12-09T06:33:05.058Z,6.30
2018-12-09T06:35:32.649Z,6.30
2018-12-09T06:38:00.196Z,6.20
2018-12-09T06:40:28.564Z,6.10
2018-12-09T06:42:57.095Z,6.10
2018-12-09T06:45:24.669Z,6.10
2018-12-09T06:47:52.203Z,6.20
2018-12-09T06:50:19.780Z,6.20
2018-12-09T06:52:47.333Z,6.30
2018-12-09T06:55:14.903Z,6.40
2018-12-09T06:57:43.428Z,6.40
2018-12-09T07:00:12.947Z,6.30
2018-12-09T07:02:41.457Z,6.40
2018-12-09T07:05:10.973Z,6.40
2018-12-09T07:07:38.521Z,6.60
2018-12-09T07:10:06.096Z,6.50
2018-12-09T07:12:33.687Z,6.60
2018-12-09T07:15:01.264Z,6.60
2018-12-09T07:17:28.855Z,6.60
2018-12-09T07:19:56.383Z,6.70
2018-12-09T07:22:24.727Z,6.60
2018-12-09T07:24:52.265Z,6.60
2018-12-09T07:27:19.827Z,6.70
2018-12-09T07:29:47.405Z,6.70
2018-12-09T07:32:14.992Z,6.60
2018-12-09T07:34:42.539Z,6.70
2018-12-09T07:37:10.106Z,6.70
2018-12-09T07:39:38.419Z,6.90
2018-12-09T07:42:06.000Z,6.90
2018-12-09T07:44:33.551Z,6.80
2018-12-09T07:47:01.131Z,6.80
2018-12-09T07:49:28.687Z,6.80
2018-12-09T07:51:56.279Z,6.90
2018-12-09T07:54:23.834Z,7.00
2018-12-09T07:56:52.164Z,6.90
2018-12-09T07:59:20.670Z,6.90
2018-12-09T08:01:48.232Z,7.10
2018-12-09T08:04:15.767Z,7.00
2018-12-09T08:06:43.341Z,7.00
2018-12-09T08:09:10.877Z,7.10
2018-12-09T08:11:38.460Z,7.00
2018-12-09T08:14:08.000Z,7.10
2018-12-09T08:16:35.156Z,7.20
2018-12-09T08:19:02.737Z,7.10
2018-12-09T08:21:30.279Z,7.20
2018-12-09T08:23:57.864Z,7.20
2018-12-09T08:26:25.413Z,7.20
2018-12-09T08:28:52.991Z,7.20
2018-12-09T08:31:20.536Z,7.30
2018-12-09T08:33:48.143Z,7.40
2018-12-09T08:36:16.787Z,7.40
2018-12-09T08:38:46.295Z,7.40
2018-12-09T08:41:13.841Z,7.50
2018-12-09T08:43:41.424Z,7.50
2018-12-09T08:46:09.012Z,7.60
2018-12-09T08:48:36.560Z,7.60
2018-12-09T08:51:04.149Z,7.50
2018-12-09T08:53:31.697Z,7.60
2018-12-09T08:55:59.274Z,7.60
2018-12-09T08:58:26.816Z,7.60
2018-12-09T09:00:54.361Z,7.60
2018-12-09T09:03:22.717Z,7.70
2018-12-09T09:05:51.052Z,7.70
2018-12-09T09:08:18.587Z,7.70
2018-12-09T09:10:46.175Z,7.70
2018-12-09T09:13:13.721Z,7.80
2018-12-09T09:15:42.202Z,7.90
2018-12-09T09:18:08.885Z,7.90
2018-12-09T09:20:36.452Z,8.00
2018-12-09T09:23:03.984Z,8.10
2018-12-09T09:25:33.523Z,8.10
2018-12-09T09:28:01.065Z,8.10
2018-12-09T09:30:28.637Z,8.10
2018-12-09T09:32:56.198Z,8.10
2018-12-09T09:35:23.764Z,8.20
2018-12-09T09:37:51.303Z,8.30
2018-12-09T09:40:18.884Z,8.30
2018-12-09T09:42:46.450Z,8.30
2018-12-09T09:45:14.025Z,8.30
2018-12-09T09:47:41.621Z,8.40
2018-12-09T09:50:09.214Z,8.50
2018-12-09T09:52:36.783Z,8.50
2018-12-09T09:55:04.344Z,8.40
2018-12-09T09:57:31.920Z,8.40
2018-12-09T09:59:59.465Z,8.40
2018-12-09T10:02:27.061Z,8.40
2018-12-09T10:04:54.603Z,8.40
2018-12-09T10:07:22.939Z,8.40
2018-12-09T10:09:50.499Z,8.40
2018-12-09T10:12:18.066Z,8.40
2018-12-09T10:14:45.599Z,8.40
2018-12-09T10:17:13.199Z,8.40
2018-12-09T10:19:41.511Z,8.50
2018-12-09T10:22:11.042Z,8.50
2018-12-09T10:24:38.579Z,8.50
2018-12-09T10:27:06.156Z,8.40
2018-12-09T10:29:33.959Z,8.40
2018-12-09T10:32:01.536Z,8.40
2018-12-09T10:34:29.841Z,8.40
2018-12-09T10:36:57.372Z,8.40
2018-12-09T10:39:24.941Z,8.30
2018-12-09T10:41:52.486Z,8.20
2018-12-09T10:44:20.064Z,8.30
2018-12-09T10:46:47.625Z,8.20
2018-12-09T10:49:15.191Z,8.00
2018-12-09T10:51:42.719Z,7.80
2018-12-09T10:54:12.279Z,7.80
2018-12-09T10:56:39.834Z,7.70
2018-12-09T10:59:07.404Z,7.70
2018-12-09T11:01:38.889Z,7.60
2018-12-09T11:04:06.482Z,7.60
2018-12-09T11:06:34.021Z,7.70
2018-12-09T11:09:02.568Z,7.70
2018-12-09T11:11:30.878Z,7.70
2018-12-09T11:13:58.579Z,7.70
2018-12-09T11:16:26.142Z,7.70
2018-12-09T11:18:53.692Z,7.70
2018-12-09T11:21:21.268Z,7.80
2018-12-09T11:23:48.804Z,7.80
2018-12-09T11:26:16.389Z,7.90
2018-12-09T11:28:43.973Z,7.90
2018-12-09T11:31:11.732Z,7.90
2018-12-09T11:33:39.312Z,7.90
2018-12-09T11:36:06.890Z,8.00
2018-12-09T11:38:34.426Z,8.00
2018-12-09T11:41:02.009Z,8.10
2018-12-09T11:43:29.566Z,8.10
2018-12-09T11:45:57.151Z,8.10
2018-12-09T11:48:26.427Z,8.00
2018-12-09T11:50:54.009Z,8.00
2018-12-09T11:53:22.015Z,8.00
2018-12-09T11:55:49.780Z,8.00
2018-12-09T11:58:17.335Z,7.90
2018-12-09T12:00:44.932Z,7.90
2018-12-09T12:03:12.479Z,7.90
2018-12-09T12:05:41.029Z,7.80
2018-12-09T12:08:08.559Z,7.90
2018-12-09T12:10:36.899Z,8.00
2018-12-09T12:13:04.450Z,8.00
2018-12-09T12:15:32.024Z,8.00
2018-12-09T12:17:59.572Z,8.00
2018-12-09T12:20:27.167Z,7.90
2018-12-09T12:22:54.712Z,7.90
2018-12-09T12:25:22.318Z,7.90
2018-12-09T12:27:49.865Z,8.00
2018-12-09T12:30:17.527Z,7.90
2018-12-09T12:32:45.071Z,8.00
2018-12-09T12:35:12.675Z,7.90
2018-12-09T12:37:41.187Z,8.00
2018-12-09T12:40:10.700Z,7.90
2018-12-09T12:42:38.242Z,7.90
2018-12-09T12:45:05.844Z,7.90
2018-12-09T12:47:33.443Z,7.90
2018-12-09T12:50:00.993Z,7.90
2018-12-09T12:52:28.609Z,7.90
2018-12-09T12:54:56.159Z,7.90
2018-12-09T12:57:23.740Z,8.00
2018-12-09T12:59:51.324Z,8.00
2018-12-09T13:02:18.867Z,8.10
2018-12-09T13:04:46.472Z,8.10
2018-12-09T13:07:14.812Z,8.10
2018-12-09T13:09:42.383Z,8.10
2018-12-09T13:12:09.936Z,8.00
2018-12-09T13:14:37.512Z,8.00
2018-12-09T13:17:05.869Z,8.10
2018-12-09T13:19:33.452Z,8.00
2018-12-09T13:22:00.992Z,8.10
2018-12-09T13:24:28.576Z,8.00
2018-12-09T13:26:56.172Z,7.90
2018-12-09T13:29:23.746Z,7.90
2018-12-09T13:31:52.285Z,7.90
2018-12-09T13:34:20.818Z,7.80
2018-12-09T13:36:49.359Z,7.80
2018-12-09T13:39:16.934Z,7.80
2018-12-09T13:41:45.439Z,7.80
2018-12-09T13:44:13.011Z,7.80
2018-12-09T13:46:40.545Z,7.70
2018-12-09T13:49:10.053Z,7.70
2018-12-09T13:51:37.587Z,7.70
2018-12-09T13:54:05.151Z,7.70
2018-12-09T13:56:32.732Z,7.70
2018-12-09T13:59:00.317Z,7.70
2018-12-09T14:01:27.850Z,7.70
2018-12-09T14:03:55.419Z,7.70
2018-12-09T14:06:22.965Z,7.70
2018-12-09T14:08:51.304Z,7.70
2018-12-09T14:11:18.845Z,7.70
2018-12-09T14:13:46.393Z,7.70
2018-12-09T14:16:13.971Z,7.60
2018-12-09T14:18:41.540Z,7.60
2018-12-09T14:21:09.113Z,7.50
2018-12-09T14:23:36.684Z,7.20
2018-12-09T14:26:04.992Z,6.70
2018-12-09T14:28:32.566Z,6.80
2018-12-09T14:31:00.140Z,6.70
2018-12-09T14:33:27.722Z,6.70
2018-12-09T14:35:55.295Z,6.80
2018-12-09T14:38:22.864Z,6.80
2018-12-09T14:40:50.404Z,6.80
2018-12-09T14:43:19.904Z,6.90
2018-12-09T14:45:49.090Z,7.00
2018-12-09T14:48:15.051Z,7.10
2018-12-09T14:50:43.549Z,7.00
2018-12-09T14:53:11.142Z,7.00
2018-12-09T14:55:38.693Z,7.00
2018-12-09T14:58:06.232Z,7.00
2018-12-09T15:00:33.806Z,7.00
2018-12-09T15:03:01.351Z,7.00
2018-12-09T15:05:28.931Z,7.00
2018-12-09T15:07:57.429Z,7.00
2018-12-09T15:10:25.095Z,7.00
2018-12-09T15:12:52.645Z,7.00
2018-12-09T15:15:20.263Z,7.10
2018-12-09T15:17:47.808Z,7.00
2018-12-09T15:20:15.379Z,7.00
2018-12-09T15:22:42.916Z,7.00
2018-12-09T15:25:11.402Z,7.00
2018-12-09T15:27:38.949Z,7.10
2018-12-09T15:30:06.532Z,7.10
2018-12-09T15:32:34.072Z,7.20
2018-12-09T15:35:01.654Z,7.20
2018-12-09T15:37:29.196Z,7.20
2018-12-09T15:39:56.782Z,7.20
2018-12-09T15:42:25.285Z,7.20
2018-12-09T15:44:52.852Z,7.20
2018-12-09T15:47:21.354Z,7.20
2018-12-09T15:49:48.935Z,7.10
2018-12-09T15:52:16.480Z,7.00
2018-12-09T15:54:44.055Z,7.00
2018-12-09T15:57:11.584Z,7.10
2018-12-09T15:59:39.152Z,7.00
2018-12-09T16:02:06.691Z,7.10
2018-12-09T16:04:34.361Z,7.10
2018-12-09T16:07:01.896Z,7.10
2018-12-09T16:09:29.460Z,7.20
2018-12-09T16:11:57.019Z,7.10
2018-12-09T16:14:24.596Z,7.10
2018-12-09T16:16:52.173Z,7.10
2018-12-09T16:19:19.715Z,7.10
2018-12-09T16:21:47.287Z,7.10
2018-12-09T16:24:14.823Z,7.10
2018-12-09T16:26:42.414Z,7.10
2018-12-09T16:29:09.959Z,7.20
2018-12-09T16:31:38.487Z,7.20
2018-12-09T16:34:06.042Z,7.20
2018-12-09T16:36:33.635Z,7.20
2018-12-09T16:39:01.177Z,7.30
2018-12-09T16:41:28.751Z,7.30
2018-12-09T16:43:56.766Z,7.30
2018-12-09T16:46:26.257Z,7.30
2018-12-09T16:48:53.815Z,7.30
2018-12-09T16:51:21.455Z,7.20
2018-12-09T16:53:49.001Z,7.30
2018-12-09T16:56:16.621Z,7.20
2018-12-09T16:58:44.155Z,7.20
2018-12-09T17:01:11.735Z,7.20
2018-12-09T17:03:39.273Z,7.10
2018-12-09T17:06:06.870Z,7.10
2018-12-09T17:08:34.412Z,7.00
2018-12-09T17:11:01.984Z,7.00
2018-12-09T17:13:29.524Z,7.00
2018-12-09T17:15:57.092Z,7.00
2018-12-09T17:18:25.591Z,6.90
2018-12-09T17:20:53.155Z,6.90
2018-12-09T17:23:20.755Z,6.90
2018-12-09T17:25:48.287Z,6.90
2018-12-09T17:28:15.856Z,6.90
2018-12-09T17:30:43.577Z,6.90
2018-12-09T17:33:13.071Z,6.90
2018-12-09T17:35:40.613Z,7.00
2018-12-09T17:38:08.182Z,6.90
2018-12-09T17:40:35.765Z,6.90
2018-12-09T17:43:03.331Z,7.00
2018-12-09T17:45:30.876Z,7.00
2018-12-09T17:47:58.473Z,7.00
2018-12-09T17:50:26.048Z,7.10
2018-12-09T17:52:53.633Z,7.10
2018-12-09T17:55:21.190Z,7.10
2018-12-09T17:57:48.774Z,7.10
2018-12-09T18:00:16.360Z,7.10
2018-12-09T18:02:43.901Z,7.00
2018-12-09T18:05:11.497Z,7.00
2018-12-09T18:07:39.051Z,7.00
2018-12-09T18:10:07.385Z,7.00
2018-12-09T18:12:34.928Z,7.10
2018-12-09T18:15:02.507Z,7.00
2018-12-09T18:17:30.821Z,7.00
2018-12-09T18:19:58.418Z,6.90
2018-12-09T18:22:25.990Z,7.00
2018-12-09T18:24:53.609Z,7.00
2018-12-09T18:27:21.150Z,7.10
2018-12-09T18:29:48.843Z,7.00
2018-12-09T18:32:16.458Z,7.10
2018-12-09T18:34:44.019Z,7.10
2018-12-09T18:37:12.070Z,7.20
2018-12-09T18:39:39.705Z,7.30
2018-12-09T18:42:08.251Z,7.30
2018-12-09T18:44:37.826Z,7.30
2018-12-09T18:47:06.352Z,7.30
2018-12-09T18:49:34.147Z,7.30
2018-12-09T18:52:01.723Z,7.40
2018-12-09T18:54:29.255Z,7.40
2018-12-09T18:56:56.827Z,7.40
2018-12-09T18:59:24.374Z,7.50
2018-12-09T19:01:51.935Z,7.40
2018-12-09T19:04:19.482Z,7.20
2018-12-09T19:06:47.080Z,7.20
2018-12-09T19:09:14.612Z,7.20
2018-12-09T19:11:42.156Z,7.20
2018-12-09T19:14:09.729Z,7.10
2018-12-09T19:16:37.295Z,7.10
2018-12-09T19:19:04.860Z,7.20
2018-12-09T19:21:32.396Z,7.10
2018-12-09T19:23:59.976Z,7.10
2018-12-09T19:26:28.312Z,7.00
2018-12-09T19:28:55.880Z,7.00
2018-12-09T19:31:23.427Z,7.00
2018-12-09T19:33:51.008Z,7.00
2018-12-09T19:36:18.709Z,6.90
2018-12-09T19:38:46.277Z,6.90
2018-12-09T19:41:14.743Z,6.80
2018-12-09T19:43:42.373Z,6.90
2018-12-09T19:46:11.647Z,6.90
2018-12-09T19:48:41.184Z,6.90
2018-12-09T19:51:08.751Z,6.90
2018-12-09T19:53:37.088Z,6.90
2018-12-09T19:56:05.591Z,6.90
2018-12-09T19:58:33.166Z,6.90
2018-12-09T20:01:00.735Z,6.90
2018-12-09T20:03:28.318Z,7.00
2018-12-09T20:05:56.832Z,7.00
2018-12-09T20:08:24.472Z,7.00
2018-12-09T20:10:52.036Z,7.00
2018-12-09T20:13:21.556Z,7.10
2018-12-09T20:15:50.394Z,7.10
2018-12-09T20:18:17.941Z,7.10
2018-12-09T20:20:45.576Z,7.20
2018-12-09T20:23:13.276Z,7.20
2018-12-09T20:25:40.852Z,7.20
2018-12-09T20:28:09.395Z,7.20
2018-12-09T20:30:36.939Z,7.10
2018-12-09T20:33:04.545Z,7.10
2018-12-09T20:35:32.127Z,7.00
2018-12-09T20:37:59.722Z,6.90
2018-12-09T20:40:27.281Z,6.90
2018-12-09T20:42:54.849Z,6.90
2018-12-09T20:45:22.416Z,6.80
2018-12-09T20:47:49.995Z,6.90
2018-12-09T20:50:17.532Z,6.90
2018-12-09T20:52:47.043Z,6.90
2018-12-09T20:55:14.610Z,7.00
2018-12-09T20:57:42.180Z,7.10
2018-12-09T21:00:09.726Z,7.10
2018-12-09T21:02:37.341Z,7.10
2018-12-09T21:05:04.885Z,7.10
2018-12-09T21:07:32.610Z,7.10
2018-12-09T21:10:00.148Z,7.20
2018-12-09T21:12:27.688Z,7.10
2018-12-09T21:14:55.253Z,7.20
2018-12-09T21:17:22.819Z,7.20
2018-12-09T21:19:52.339Z,7.30
2018-12-09T21:22:19.887Z,7.40
2018-12-09T21:24:47.464Z,7.40
2018-12-09T21:27:15.079Z,7.30
2018-12-09T21:29:42.708Z,7.20
2018-12-09T21:32:10.264Z,7.20
2018-12-09T21:34:38.857Z,7.30
2018-12-09T21:37:06.476Z,7.30
2018-12-09T21:39:34.083Z,7.30
2018-12-09T21:42:01.692Z,7.20
2018-12-09T21:44:31.211Z,7.20
2018-12-09T21:46:58.744Z,7.10
2018-12-09T21:49:26.326Z,7.10
2018-12-09T21:51:53.876Z,7.00
2018-12-09T21:54:21.451Z,7.00
2018-12-09T21:56:49.793Z,7.10
2018-12-09T21:59:19.361Z,7.00
2018-12-09T22:01:46.908Z,7.10
2018-12-09T22:04:14.518Z,7.00
2018-12-09T22:06:42.064Z,7.00
2018-12-09T22:09:09.640Z,7.00
2018-12-09T22:11:37.210Z,7.00
2018-12-09T22:14:04.792Z,7.00
2018-12-09T22:16:32.483Z,7.00
2018-12-09T22:19:00.059Z,7.00
2018-12-09T22:21:27.615Z,7.00
2018-12-09T22:23:55.157Z,7.00
2018-12-09T22:26:22.735Z,7.00
2018-12-09T22:28:50.268Z,7.00
2018-12-09T22:31:17.836Z,6.90
2018-12-09T22:33:47.339Z,7.00
2018-12-09T22:36:14.890Z,6.90
2018-12-09T22:38:42.626Z,7.00
2018-12-09T22:41:10.201Z,7.00
2018-12-09T22:43:37.769Z,7.00
2018-12-09T22:46:05.308Z,6.90
2018-12-09T22:48:32.895Z,7.00
2018-12-09T22:51:00.432Z,7.00
2018-12-09T22:53:28.008Z,7.00
2018-12-09T22:55:55.552Z,7.10
2018-12-09T22:58:25.075Z,7.00
2018-12-09T23:00:58.164Z,7.10
2018-12-09T23:03:25.741Z,7.00
2018-12-09T23:05:53.302Z,7.00
2018-12-09T23:08:21.652Z,7.10
2018-12-09T23:10:49.188Z,7.10
2018-12-09T23:13:17.156Z,7.10
2018-12-09T23:15:45.672Z,7.10
2018-12-09T23:18:13.242Z,7.10
2018-12-09T23:20:40.784Z,7.00
2018-12-09T23:23:08.362Z,7.00
2018-12-09T23:25:35.943Z,7.00
2018-12-09T23:28:03.475Z,7.10
2018-12-09T23:30:31.807Z,6.80
2018-12-09T23:32:59.392Z,6.80
2018-12-09T23:35:26.951Z,6.90
2018-12-09T23:37:54.488Z,6.90
2018-12-09T23:40:22.051Z,6.90
2018-12-09T23:42:49.587Z,6.90
2018-12-09T23:45:17.158Z,7.00
2018-12-09T23:47:44.695Z,7.00
2018-12-09T23:50:12.280Z,6.90
2018-12-09T23:52:39.822Z,7.00
2018-12-09T23:55:07.398Z,7.10
2018-12-09T23:57:35.042Z,7.10
